createdAt,value
2018-11-13T00:00:02.027Z,8.27
2018-11-13T00:02:30.506Z,7.50
2018-11-13T00:04:58.890Z,8.27
2018-11-13T00:07:27.525Z,8.93
2018-11-13T00:09:55.909Z,8.30
2018-11-13T00:12:24.272Z,7.97
2018-11-13T00:14:53.593Z,8.35
2018-11-13T00:17:21.996Z,7.37
2018-11-13T00:19:50.389Z,8.25
2018-11-13T00:22:18.820Z,8.90
2018-11-13T00:24:47.261Z,8.43
2018-11-13T00:27:15.679Z,9.50
2018-11-13T00:29:44.059Z,8.45
2018-11-13T00:32:12.508Z,8.60
2018-11-13T00:34:40.923Z,9.80
2018-11-13T00:37:09.353Z,9.60
2018-11-13T00:39:37.745Z,9.07
2018-11-13T00:42:06.397Z,10.53
2018-11-13T00:44:34.664Z,9.50
2018-11-13T00:47:03.057Z,9.17
2018-11-13T00:49:32.344Z,8.93
2018-11-13T00:52:00.713Z,9.80
2018-11-13T00:54:29.253Z,8.38
2018-11-13T00:56:58.132Z,10.23
2018-11-13T00:59:26.554Z,10.10
2018-11-13T01:01:54.905Z,10.63
2018-11-13T01:04:23.316Z,10.07
2018-11-13T01:06:51.847Z,10.07
2018-11-13T01:09:20.242Z,11.40
2018-11-13T01:11:48.639Z,11.15
2018-11-13T01:14:16.924Z,11.40
2018-11-13T01:16:48.308Z,12.03
2018-11-13T01:19:16.782Z,12.03
2018-11-13T01:21:45.191Z,11.63
2018-11-13T01:24:13.594Z,10.53
2018-11-13T01:26:41.937Z,10.57
2018-11-13T01:29:10.419Z,10.78
2018-11-13T01:31:38.834Z,10.80
2018-11-13T01:34:07.265Z,9.80
2018-11-13T01:36:36.864Z,9.97
2018-11-13T01:39:07.708Z,9.43
2018-11-13T01:41:36.326Z,10.70
2018-11-13T01:44:04.999Z,10.10
2018-11-13T01:46:33.459Z,9.67
2018-11-13T01:49:01.968Z,10.10
2018-11-13T01:51:30.396Z,9.37
2018-11-13T01:53:58.911Z,9.93
2018-11-13T01:56:27.338Z,10.47
2018-11-13T01:58:56.577Z,10.40
2018-11-13T02:01:25.777Z,9.80
2018-11-13T02:03:56.062Z,9.67
2018-11-13T02:06:24.710Z,8.40
2018-11-13T02:08:53.809Z,8.77
2018-11-13T02:11:22.328Z,9.00
2018-11-13T02:13:50.920Z,8.70
2018-11-13T02:16:19.375Z,9.53
2018-11-13T02:18:47.816Z,8.27
2018-11-13T02:21:16.302Z,8.73
2018-11-13T02:23:44.760Z,9.18
2018-11-13T02:26:13.199Z,9.73
2018-11-13T02:28:41.651Z,9.30
2018-11-13T02:31:10.073Z,8.77
2018-11-13T02:33:38.499Z,8.50
2018-11-13T02:36:06.987Z,8.90
2018-11-13T02:38:35.452Z,8.50
2018-11-13T02:41:03.977Z,7.97
2018-11-13T02:43:32.436Z,8.17
2018-11-13T02:46:00.808Z,8.73
2018-11-13T02:48:29.214Z,8.27
2018-11-13T02:50:57.615Z,7.95
2018-11-13T02:53:26.624Z,8.25
2018-11-13T02:55:55.088Z,8.10
2018-11-13T02:58:23.508Z,7.80
2018-11-13T03:00:51.964Z,7.30
2018-11-13T03:03:20.398Z,9.13
2018-11-13T03:05:48.786Z,9.17
2018-11-13T03:08:17.213Z,9.00
2018-11-13T03:10:45.756Z,9.15
2018-11-13T03:13:14.171Z,10.07
2018-11-13T03:15:42.572Z,10.70
2018-11-13T03:18:11.123Z,11.63
2018-11-13T03:20:39.482Z,12.80
2018-11-13T03:23:07.846Z,12.05
2018-11-13T03:25:36.266Z,11.60
2018-11-13T03:28:05.609Z,13.30
2018-11-13T03:30:33.998Z,13.50
2018-11-13T03:33:02.458Z,14.47
2018-11-13T03:35:30.893Z,20.63
2018-11-13T03:37:59.264Z,31.43
2018-11-13T03:40:27.773Z,42.13
2018-11-13T03:42:56.159Z,41.20
2018-11-13T03:45:24.568Z,52.23
2018-11-13T03:47:53.004Z,42.40
2018-11-13T03:50:22.328Z,40.43
2018-11-13T03:52:50.873Z,32.30
2018-11-13T03:55:20.089Z,16.80
2018-11-13T03:57:49.193Z,10.60
2018-11-13T04:00:18.741Z,7.50
2018-11-13T04:02:47.160Z,5.37
2018-11-13T04:05:16.692Z,4.47
2018-11-13T04:07:46.440Z,3.60
2018-11-13T04:10:16.348Z,3.50
2018-11-13T04:12:44.891Z,3.57
2018-11-13T04:15:14.684Z,3.40
2018-11-13T04:17:43.047Z,2.70
2018-11-13T04:20:13.289Z,2.80
2018-11-13T04:22:42.197Z,2.50
2018-11-13T04:25:10.732Z,2.87
2018-11-13T04:27:39.198Z,2.37
2018-11-13T04:30:09.451Z,3.05
2018-11-13T04:32:38.263Z,3.90
2018-11-13T04:35:08.034Z,4.23
2018-11-13T04:37:36.575Z,4.30
2018-11-13T04:40:07.543Z,5.10
2018-11-13T04:42:36.036Z,5.90
2018-11-13T04:45:05.165Z,6.05
2018-11-13T04:47:33.686Z,6.10
2018-11-13T04:50:02.168Z,7.00
2018-11-13T04:52:37.499Z,6.03
2018-11-13T04:55:06.687Z,6.33
2018-11-13T04:57:35.116Z,5.60
2018-11-13T05:00:05.409Z,5.83
2018-11-13T05:02:34.224Z,6.95
2018-11-13T05:05:02.676Z,7.10
2018-11-13T05:07:31.181Z,7.90
2018-11-13T05:09:59.656Z,7.05
2018-11-13T05:12:28.141Z,7.50
2018-11-13T05:14:56.581Z,8.00
2018-11-13T05:17:27.148Z,7.58
2018-11-13T05:19:55.628Z,8.05
2018-11-13T05:22:24.427Z,7.03
2018-11-13T05:24:52.892Z,6.40
2018-11-13T05:27:22.264Z,5.70
2018-11-13T05:29:50.712Z,5.67
2018-11-13T05:32:19.184Z,6.08
2018-11-13T05:34:47.604Z,4.60
2018-11-13T05:37:16.003Z,4.27
2018-11-13T05:39:44.429Z,3.98
2018-11-13T05:42:12.901Z,3.80
2018-11-13T05:44:42.871Z,3.30
2018-11-13T05:47:13.230Z,3.60
2018-11-13T05:49:42.137Z,3.02
2018-11-13T05:52:10.834Z,3.70
2018-11-13T05:59:34.689Z,3.42
2018-11-13T06:02:03.225Z,3.30
2018-11-13T06:04:37.787Z,3.97
2018-11-13T06:07:10.445Z,3.80
2018-11-13T06:09:39.871Z,4.15
2018-11-13T06:12:08.400Z,4.37
2018-11-13T06:14:37.277Z,5.03
2018-11-13T06:17:05.692Z,4.43
2018-11-13T06:19:34.093Z,5.40
2018-11-13T06:22:02.534Z,5.37
2018-11-13T06:24:30.928Z,5.43
2018-11-13T06:26:59.304Z,5.60
2018-11-13T06:29:27.736Z,6.17
2018-11-13T06:31:56.080Z,6.50
2018-11-13T06:34:24.492Z,5.90
2018-11-13T06:36:52.881Z,6.83
2018-11-13T06:39:21.267Z,6.12
2018-11-13T06:41:49.713Z,6.00
2018-11-13T06:44:18.125Z,6.17
2018-11-13T06:46:47.210Z,6.25
2018-11-13T06:49:16.457Z,5.17
2018-11-13T06:51:44.949Z,5.77
2018-11-13T06:54:24.549Z,5.40
2018-11-13T06:56:52.975Z,5.20
2018-11-13T06:59:21.487Z,5.00
2018-11-13T07:01:49.857Z,5.50
2018-11-13T07:04:18.335Z,5.90
2018-11-13T07:06:47.300Z,5.07
2018-11-13T07:09:15.687Z,5.00
2018-11-13T07:11:44.068Z,5.47
2018-11-13T07:14:12.465Z,4.92
2018-11-13T07:16:40.918Z,5.25
2018-11-13T07:19:09.568Z,5.40
2018-11-13T07:21:38.051Z,4.97
2018-11-13T07:24:06.516Z,4.75
2018-11-13T07:26:34.874Z,4.90
2018-11-13T07:29:03.452Z,4.40
2018-11-13T07:31:31.993Z,4.63
2018-11-13T07:34:00.399Z,5.28
2018-11-13T07:36:31.345Z,5.60
2018-11-13T07:38:59.836Z,5.57
2018-11-13T07:41:31.225Z,5.47
2018-11-13T07:43:59.808Z,5.50
2018-11-13T07:46:28.403Z,5.80
2018-11-13T07:48:56.861Z,6.20
2018-11-13T07:51:25.236Z,5.97
2018-11-13T07:53:53.831Z,6.40
2018-11-13T07:56:22.612Z,6.23
2018-11-13T07:58:51.001Z,8.07
2018-11-13T08:01:19.394Z,7.40
2018-11-13T08:03:47.825Z,6.73
2018-11-13T08:06:16.334Z,6.97
2018-11-13T08:08:44.659Z,6.23
2018-11-13T08:11:13.116Z,6.20
2018-11-13T08:13:41.647Z,6.55
2018-11-13T08:16:10.314Z,6.90
2018-11-13T08:18:45.464Z,6.78
2018-11-13T08:21:13.819Z,6.40
2018-11-13T08:23:42.232Z,7.50
2018-11-13T08:26:10.688Z,7.13
2018-11-13T08:28:39.084Z,6.60
2018-11-13T08:31:07.757Z,6.77
2018-11-13T08:33:36.339Z,6.30
2018-11-13T08:36:04.794Z,6.10
2018-11-13T08:38:33.161Z,6.13
2018-11-13T08:41:01.618Z,5.13
2018-11-13T08:43:30.051Z,5.53
2018-11-13T08:45:58.496Z,4.22
2018-11-13T08:48:26.909Z,3.37
2018-11-13T08:50:55.398Z,3.50
2018-11-13T08:53:23.777Z,3.30
2018-11-13T08:55:52.283Z,3.23
2018-11-13T08:58:20.739Z,3.33
2018-11-13T09:00:50.080Z,2.98
2018-11-13T09:03:18.454Z,2.97
2018-11-13T09:05:46.853Z,2.50
2018-11-13T09:08:15.293Z,2.40
2018-11-13T09:10:43.753Z,2.70
2018-11-13T09:13:12.269Z,2.65
2018-11-13T09:15:40.765Z,2.70
2018-11-13T09:18:09.238Z,2.17
2018-11-13T09:20:37.617Z,2.10
2018-11-13T09:23:06.193Z,2.30
2018-11-13T09:25:34.581Z,2.50
2018-11-13T09:28:03.073Z,2.45
2018-11-13T09:30:31.720Z,2.65
2018-11-13T09:33:00.034Z,2.67
2018-11-13T09:35:29.000Z,2.77
2018-11-13T09:37:57.401Z,3.30
2018-11-13T09:40:25.813Z,2.50
2018-11-13T09:42:54.288Z,3.00
2018-11-13T09:45:22.842Z,2.70
2018-11-13T09:47:51.391Z,2.43
2018-11-13T09:50:20.837Z,2.40
2018-11-13T09:52:50.549Z,2.47
2018-11-13T09:55:20.429Z,2.23
2018-11-13T09:57:48.856Z,1.90
2018-11-13T10:00:22.313Z,1.70
2018-11-13T10:02:54.863Z,1.77
2018-11-13T10:05:23.090Z,1.63
2018-11-13T10:07:51.949Z,1.60
2018-11-13T10:10:20.774Z,2.00
2018-11-13T10:12:49.261Z,1.50
2018-11-13T10:15:22.983Z,1.45
2018-11-13T10:17:51.553Z,1.53
2018-11-13T10:20:19.814Z,1.40
2018-11-13T10:22:49.725Z,1.40
2018-11-13T10:25:18.210Z,1.10
2018-11-13T10:27:46.771Z,1.12
2018-11-13T10:30:16.704Z,1.10
2018-11-13T10:32:45.487Z,0.97
2018-11-13T10:35:14.961Z,1.00
2018-11-13T10:37:43.409Z,0.97
2018-11-13T10:40:13.384Z,0.80
2018-11-13T10:42:42.053Z,1.00
2018-11-13T10:45:14.630Z,0.87
2018-11-13T10:47:43.299Z,0.90
2018-11-13T10:50:16.400Z,0.90
2018-11-13T10:52:44.780Z,1.27
2018-11-13T10:55:13.462Z,0.90
2018-11-13T10:57:42.457Z,1.10
2018-11-13T11:00:19.099Z,1.00
2018-11-13T11:02:54.212Z,0.97
2018-11-13T11:05:25.736Z,1.30
2018-11-13T11:07:54.327Z,0.90
2018-11-13T11:10:22.846Z,1.17
2018-11-13T11:12:51.449Z,1.00
2018-11-13T11:15:20.150Z,1.00
2018-11-13T11:17:48.613Z,1.17
2018-11-13T11:20:17.032Z,1.00
2018-11-13T11:22:45.909Z,0.93
2018-11-13T11:25:14.605Z,0.93
2018-11-13T11:27:43.151Z,0.97
2018-11-13T11:30:13.725Z,1.00
2018-11-13T11:32:42.405Z,1.00
2018-11-13T11:35:10.986Z,0.80
2018-11-13T11:37:40.013Z,1.10
2018-11-13T11:40:09.260Z,1.00
2018-11-13T11:42:38.147Z,0.80
2018-11-13T11:45:09.551Z,0.80
2018-11-13T11:47:38.516Z,0.87
2018-11-13T11:50:08.570Z,0.87
2018-11-13T11:52:37.122Z,1.00
2018-11-13T11:55:05.920Z,1.00
2018-11-13T11:57:34.419Z,1.17
2018-11-13T12:00:02.859Z,1.02
2018-11-13T12:02:31.227Z,1.10
2018-11-13T12:04:59.913Z,1.10
2018-11-13T12:07:28.256Z,1.40
2018-11-13T12:09:56.949Z,1.10
2018-11-13T12:12:25.491Z,1.00
2018-11-13T12:14:53.804Z,1.30
2018-11-13T12:17:22.226Z,1.07
2018-11-13T12:19:50.929Z,1.42
2018-11-13T12:22:19.341Z,1.00
2018-11-13T12:24:47.797Z,1.33
2018-11-13T12:27:16.161Z,1.37
2018-11-13T12:29:44.525Z,1.45
2018-11-13T12:32:12.950Z,1.50
2018-11-13T12:34:41.486Z,1.47
2018-11-13T12:37:09.761Z,1.57
2018-11-13T12:39:38.190Z,1.20
2018-11-13T12:42:06.580Z,1.22
2018-11-13T12:44:34.973Z,1.30
2018-11-13T12:47:03.682Z,1.33
2018-11-13T12:49:32.108Z,1.33
2018-11-13T12:52:05.834Z,1.45
2018-11-13T12:54:34.227Z,1.17
2018-11-13T12:57:02.636Z,1.22
2018-11-13T12:59:31.048Z,1.33
2018-11-13T13:01:59.551Z,1.10
2018-11-13T13:04:27.994Z,1.37
2018-11-13T13:06:56.465Z,1.07
2018-11-13T13:09:24.870Z,1.33
2018-11-13T13:11:53.267Z,1.07
2018-11-13T13:14:21.679Z,1.20
2018-11-13T13:16:50.029Z,1.22
2018-11-13T13:19:18.477Z,1.30
2018-11-13T13:21:46.913Z,1.40
2018-11-13T13:24:15.243Z,1.40
2018-11-13T13:26:43.649Z,1.32
2018-11-13T13:29:12.093Z,1.27
2018-11-13T13:31:40.923Z,1.37
2018-11-13T13:34:09.589Z,1.77
2018-11-13T13:36:38.524Z,1.37
2018-11-13T13:39:08.645Z,1.50
2018-11-13T13:41:37.072Z,1.30
2018-11-13T13:44:05.963Z,1.70
2018-11-13T13:46:34.534Z,1.27
2018-11-13T13:49:03.033Z,1.50
2018-11-13T13:51:31.550Z,1.50
2018-11-13T13:54:00.294Z,2.50
2018-11-13T13:56:28.598Z,1.70
2018-11-13T13:58:57.041Z,1.45
2018-11-13T14:01:25.433Z,1.40
2018-11-13T14:03:53.833Z,1.60
2018-11-13T14:06:22.220Z,1.47
2018-11-13T14:08:50.658Z,1.63
2018-11-13T14:11:19.485Z,1.50
2018-11-13T14:13:47.984Z,1.83
2018-11-13T14:16:16.423Z,1.70
2018-11-13T14:18:44.889Z,1.57
2018-11-13T14:21:13.305Z,1.70
2018-11-13T14:23:41.732Z,1.70
2018-11-13T14:26:10.156Z,1.80
2018-11-13T14:28:38.562Z,2.15
2018-11-13T14:31:07.003Z,1.50
2018-11-13T14:33:35.472Z,1.70
2018-11-13T14:36:03.960Z,1.90
2018-11-13T14:38:33.077Z,2.00
2018-11-13T14:41:01.488Z,2.07
2018-11-13T14:43:30.013Z,2.30
2018-11-13T14:45:58.524Z,2.50
2018-11-13T14:48:26.979Z,2.00
2018-11-13T14:50:55.442Z,1.80
2018-11-13T14:53:23.917Z,2.45
2018-11-13T14:55:52.291Z,1.50
2018-11-13T14:58:20.825Z,1.80
2018-11-13T15:00:49.387Z,1.83
2018-11-13T15:03:18.171Z,1.97
2018-11-13T15:05:46.572Z,1.93
2018-11-13T15:08:15.036Z,1.57
2018-11-13T15:10:46.131Z,1.95
2018-11-13T15:13:14.945Z,2.30
2018-11-13T15:15:43.347Z,2.00
2018-11-13T15:18:12.124Z,1.98
2018-11-13T15:20:40.982Z,2.10
2018-11-13T15:23:10.388Z,2.22
2018-11-13T15:25:39.249Z,1.80
2018-11-13T15:28:08.567Z,2.25
2018-11-13T15:30:40.156Z,1.82
2018-11-13T15:33:10.096Z,2.10
2018-11-13T15:35:38.529Z,2.30
2018-11-13T15:38:07.473Z,1.87
2018-11-13T15:40:35.976Z,1.87
2018-11-13T15:43:04.617Z,2.27
2018-11-13T15:45:33.068Z,2.60
2018-11-13T15:48:02.448Z,2.50
2018-11-13T15:50:34.580Z,2.50
2018-11-13T15:53:03.067Z,2.60
2018-11-13T15:55:31.448Z,2.43
2018-11-13T15:58:00.678Z,2.90
2018-11-13T16:00:33.733Z,3.00
2018-11-13T16:03:06.097Z,3.20
2018-11-13T16:05:37.864Z,2.25
2018-11-13T16:08:07.146Z,2.20
2018-11-13T16:10:35.639Z,2.33
2018-11-13T16:13:04.238Z,2.40
2018-11-13T16:15:33.120Z,3.27
2018-11-13T16:18:08.457Z,2.60
2018-11-13T16:20:38.533Z,2.83
2018-11-13T16:23:07.992Z,2.95
2018-11-13T16:25:36.472Z,2.12
2018-11-13T16:28:05.213Z,2.15
2018-11-13T16:30:35.315Z,2.55
2018-11-13T16:33:06.027Z,2.35
2018-11-13T16:35:34.593Z,3.10
2018-11-13T16:38:04.543Z,3.00
2018-11-13T16:40:33.624Z,2.85
2018-11-13T16:43:02.326Z,2.50
2018-11-13T16:45:31.816Z,2.60
2018-11-13T16:48:04.899Z,2.70
2018-11-13T16:50:35.438Z,3.17
2018-11-13T16:53:04.174Z,2.40
2018-11-13T16:55:38.102Z,2.47
2018-11-13T16:58:07.947Z,2.50
2018-11-13T17:00:36.424Z,3.20
2018-11-13T17:03:05.160Z,2.60
2018-11-13T17:05:33.911Z,2.70
2018-11-13T17:08:02.338Z,3.17
2018-11-13T17:10:31.581Z,3.00
2018-11-13T17:13:00.766Z,2.50
2018-11-13T17:15:30.473Z,3.53
2018-11-13T17:18:00.249Z,3.67
2018-11-13T17:20:28.799Z,2.60
2018-11-13T17:22:57.328Z,2.77
2018-11-13T17:25:27.483Z,2.97
2018-11-13T17:27:56.216Z,3.37
2018-11-13T17:30:26.892Z,3.23
2018-11-13T17:32:56.556Z,2.80
2018-11-13T17:35:25.845Z,2.97
2018-11-13T17:37:55.126Z,2.97
2018-11-13T17:40:24.690Z,3.07
2018-11-13T17:42:54.402Z,3.07
2018-11-13T17:45:38.787Z,3.30
2018-11-13T17:48:08.624Z,3.37
2018-11-13T17:50:38.135Z,2.90
2018-11-13T17:53:07.591Z,3.93
2018-11-13T17:55:36.156Z,3.37
2018-11-13T17:58:08.960Z,2.83
2018-11-13T18:00:40.533Z,3.40
2018-11-13T18:03:11.163Z,3.90
2018-11-13T18:05:40.065Z,3.10
2018-11-13T18:08:09.905Z,3.45
2018-11-13T18:10:39.431Z,3.83
2018-11-13T18:13:08.213Z,3.73
2018-11-13T18:15:36.652Z,3.30
2018-11-13T18:18:06.202Z,3.50
2018-11-13T18:20:35.910Z,3.40
2018-11-13T18:23:04.346Z,3.10
2018-11-13T18:25:32.821Z,3.00
2018-11-13T18:28:02.644Z,3.40
2018-11-13T18:30:32.303Z,4.17
2018-11-13T18:33:01.733Z,3.57
2018-11-13T18:35:31.763Z,4.60
2018-11-13T18:38:01.380Z,5.10
2018-11-13T18:40:30.075Z,4.23
2018-11-13T18:42:59.927Z,4.20
2018-11-13T18:45:33.549Z,4.27
2018-11-13T18:48:02.106Z,4.43
2018-11-13T18:50:32.979Z,4.50
2018-11-13T18:53:01.686Z,4.65
2018-11-13T18:55:30.351Z,5.20
2018-11-13T18:57:59.662Z,4.37
2018-11-13T19:00:29.623Z,5.07
2018-11-13T19:02:59.036Z,4.37
2018-11-13T19:05:27.886Z,5.23
2018-11-13T19:07:56.710Z,5.50
2018-11-13T19:10:47.392Z,5.83
2018-11-13T19:13:18.159Z,5.50
2018-11-13T19:15:48.845Z,4.80
2018-11-13T19:18:18.075Z,4.80
2018-11-13T19:20:46.748Z,6.37
2018-11-13T19:23:15.224Z,7.40
2018-11-13T19:25:43.808Z,21.93
2018-11-13T19:28:12.313Z,13.77
2018-11-13T19:30:40.799Z,10.40
2018-11-13T19:33:09.396Z,8.07
2018-11-13T19:35:38.141Z,9.00
2018-11-13T19:38:13.348Z,8.50
2018-11-13T19:40:41.857Z,7.50
2018-11-13T19:43:11.453Z,13.20
2018-11-13T19:45:40.018Z,9.60
2018-11-13T19:48:08.518Z,7.07
2018-11-13T19:50:37.570Z,7.17
2018-11-13T19:53:06.284Z,5.73
2018-11-13T19:55:35.245Z,6.13
2018-11-13T19:58:03.688Z,5.75
2018-11-13T20:00:38.033Z,5.83
2018-11-13T20:03:07.843Z,5.60
2018-11-13T20:05:36.412Z,6.17
2018-11-13T20:08:06.135Z,5.60
2018-11-13T20:10:35.553Z,5.50
2018-11-13T20:13:06.108Z,5.80
2018-11-13T20:15:35.605Z,9.20
2018-11-13T20:18:04.211Z,6.60
2018-11-13T20:20:33.733Z,9.70
2018-11-13T20:23:03.824Z,7.57
2018-11-13T20:25:33.457Z,7.10
2018-11-13T20:28:02.169Z,7.00
2018-11-13T20:30:34.094Z,6.80
2018-11-13T20:33:03.362Z,6.90
2018-11-13T20:35:31.857Z,6.60
2018-11-13T20:38:00.945Z,6.10
2018-11-13T20:40:30.903Z,5.78
2018-11-13T20:43:00.816Z,5.40
2018-11-13T20:45:29.713Z,5.90
2018-11-13T20:47:58.240Z,5.20
2018-11-13T20:50:29.159Z,5.80
2018-11-13T20:52:59.719Z,6.10
2018-11-13T20:55:28.209Z,4.83
2018-11-13T20:58:02.925Z,5.65
2018-11-13T21:00:32.989Z,6.30
2018-11-13T21:03:01.582Z,8.27
2018-11-13T21:05:30.173Z,7.33
2018-11-13T21:07:58.962Z,7.60
2018-11-13T21:10:30.686Z,6.80
2018-11-13T21:12:59.411Z,6.77
2018-11-13T21:15:27.976Z,7.20
2018-11-13T21:20:51.536Z,5.83
2018-11-13T21:23:20.320Z,6.53
2018-11-13T21:25:48.829Z,6.05
2018-11-13T21:28:17.410Z,5.33
2018-11-13T21:30:46.871Z,5.20
2018-11-13T21:33:15.316Z,6.10
2018-11-13T21:35:44.196Z,6.07
2018-11-13T21:38:12.842Z,5.53
2018-11-13T21:40:41.888Z,5.80
2018-11-13T21:43:10.872Z,7.17
2018-11-13T21:45:39.357Z,12.83
2018-11-13T21:48:07.855Z,9.95
2018-11-13T21:50:36.277Z,7.83
2018-11-13T21:53:04.889Z,7.73
2018-11-13T21:55:33.736Z,7.23
2018-11-13T21:58:02.258Z,7.03
2018-11-13T22:00:32.686Z,7.03
2018-11-13T22:03:06.742Z,7.77
2018-11-13T22:05:35.866Z,7.20
2018-11-13T22:08:04.592Z,7.67
2018-11-13T22:10:33.126Z,7.53
2018-11-13T22:13:01.691Z,7.60
2018-11-13T22:15:30.856Z,7.13
2018-11-13T22:20:28.445Z,7.40
2018-11-13T22:22:58.686Z,7.10
2018-11-13T22:25:27.369Z,7.30
2018-11-13T22:27:57.118Z,7.20
2018-11-13T22:30:29.230Z,5.63
2018-11-13T22:32:57.838Z,6.20
2018-11-13T22:35:26.467Z,6.80
2018-11-13T22:37:55.191Z,7.53
2018-11-13T22:40:24.912Z,7.58
2018-11-13T22:42:53.486Z,8.50
2018-11-13T22:45:23.214Z,8.13
2018-11-13T22:47:52.184Z,8.33
2018-11-13T22:50:22.096Z,8.30
2018-11-13T22:52:51.804Z,7.30
2018-11-13T22:55:20.708Z,7.73
2018-11-13T22:57:50.102Z,7.73
2018-11-13T23:00:21.635Z,7.10
2018-11-13T23:02:51.296Z,8.28
2018-11-13T23:05:19.977Z,8.40
2018-11-13T23:07:48.464Z,7.30
2018-11-13T23:10:17.580Z,8.00
2018-11-13T23:12:46.344Z,7.80
2018-11-13T23:15:18.990Z,7.97
2018-11-13T23:17:47.837Z,7.87
2018-11-13T23:20:17.816Z,7.40
2018-11-13T23:22:46.473Z,7.37
2018-11-13T23:25:17.107Z,8.17
2018-11-13T23:27:46.593Z,8.13
2018-11-13T23:30:17.345Z,7.67
2018-11-13T23:32:46.053Z,7.00
2018-11-13T23:35:14.889Z,7.63
2018-11-13T23:37:44.778Z,8.70
2018-11-13T23:40:15.586Z,8.17
2018-11-13T23:42:44.486Z,7.70
2018-11-13T23:45:13.774Z,7.97
2018-11-13T23:47:42.594Z,7.60
2018-11-13T23:50:11.452Z,8.43
2018-11-13T23:52:39.884Z,7.70
2018-11-13T23:55:09.818Z,7.80
2018-11-13T23:57:38.892Z,7.70
